sensor_id;sensor_type;location;lat;lon;timestamp;temperature;humidity
2439;DHT22;14509;47.992;7.848;2023-08-12T00:01:27;24.70;53.10
2439;DHT22;14509;47.992;7.848;2023-08-12T00:03:29;24.80;53.10
2439;DHT22;14509;47.992;7.848;2023-08-12T00:05:31;24.80;52.90
2439;DHT22;14509;47.992;7.848;2023-08-12T00:07:32;24.80;52.80
2439;DHT22;14509;47.992;7.848;2023-08-12T00:09:34;25.00;52.80
2439;DHT22;14509;47.992;7.848;2023-08-12T00:11:36;24.90;52.70
2439;DHT22;14509;47.992;7.848;2023-08-12T00:13:38;24.90;52.50
2439;DHT22;14509;47.992;7.848;2023-08-12T00:15:41;25.00;52.50
2439;DHT22;14509;47.992;7.848;2023-08-12T00:17:43;25.00;52.40
2439;DHT22;14509;47.992;7.848;2023-08-12T00:19:45;25.00;52.40
2439;DHT22;14509;47.992;7.848;2023-08-12T00:21:47;25.20;52.50
2439;DHT22;14509;47.992;7.848;2023-08-12T00:23:49;25.00;52.30
2439;DHT22;14509;47.992;7.848;2023-08-12T00:25:51;25.00;52.20
2439;DHT22;14509;47.992;7.848;2023-08-12T00:27:52;25.10;52.20
2439;DHT22;14509;47.992;7.848;2023-08-12T00:29:54;25.00;52.10
2439;DHT22;14509;47.992;7.848;2023-08-12T00:31:56;25.10;52.10
2439;DHT22;14509;47.992;7.848;2023-08-12T00:33:58;25.10;52.00
2439;DHT22;14509;47.992;7.848;2023-08-12T00:36:00;25.20;51.90
2439;DHT22;14509;47.992;7.848;2023-08-12T00:38:03;25.20;51.80
2439;DHT22;14509;47.992;7.848;2023-08-12T00:40:06;25.20;51.80
2439;DHT22;14509;47.992;7.848;2023-08-12T00:42:08;25.20;51.60
2439;DHT22;14509;47.992;7.848;2023-08-12T00:44:10;25.20;51.60
2439;DHT22;14509;47.992;7.848;2023-08-12T00:46:12;25.20;51.50
2439;DHT22;14509;47.992;7.848;2023-08-12T00:48:17;25.20;51.50
2439;DHT22;14509;47.992;7.848;2023-08-12T00:50:19;25.20;51.50
2439;DHT22;14509;47.992;7.848;2023-08-12T00:52:22;25.20;51.50
2439;DHT22;14509;47.992;7.848;2023-08-12T00:54:26;25.20;51.40
2439;DHT22;14509;47.992;7.848;2023-08-12T00:56:29;25.30;51.40
2439;DHT22;14509;47.992;7.848;2023-08-12T00:58:32;25.30;51.30
2439;DHT22;14509;47.992;7.848;2023-08-12T01:00:35;25.30;51.30
2439;DHT22;14509;47.992;7.848;2023-08-12T01:02:37;25.30;51.20
2439;DHT22;14509;47.992;7.848;2023-08-12T01:04:40;26.20;51.80
2439;DHT22;14509;47.992;7.848;2023-08-12T01:06:42;25.70;51.60
2439;DHT22;14509;47.992;7.848;2023-08-12T01:08:44;25.30;51.30
2439;DHT22;14509;47.992;7.848;2023-08-12T01:10:52;25.30;51.50
2439;DHT22;14509;47.992;7.848;2023-08-12T01:13:02;25.30;51.50
2439;DHT22;14509;47.992;7.848;2023-08-12T01:15:13;25.30;51.40
2439;DHT22;14509;47.992;7.848;2023-08-12T01:17:17;25.30;51.40
2439;DHT22;14509;47.992;7.848;2023-08-12T01:19:22;25.30;51.40
2439;DHT22;14509;47.992;7.848;2023-08-12T01:21:29;25.40;51.40
2439;DHT22;14509;47.992;7.848;2023-08-12T01:23:33;25.30;51.30
2439;DHT22;14509;47.992;7.848;2023-08-12T01:25:35;25.40;51.30
2439;DHT22;14509;47.992;7.848;2023-08-12T01:27:37;25.20;51.10
2439;DHT22;14509;47.992;7.848;2023-08-12T01:29:41;25.40;51.30
2439;DHT22;14509;47.992;7.848;2023-08-12T01:31:50;25.40;51.20
2439;DHT22;14509;47.992;7.848;2023-08-12T01:33:58;25.40;51.30
2439;DHT22;14509;47.992;7.848;2023-08-12T01:36:09;25.80;51.50
2439;DHT22;14509;47.992;7.848;2023-08-12T01:38:13;25.40;51.10
2439;DHT22;14509;47.992;7.848;2023-08-12T01:40:19;25.50;51.30
2439;DHT22;14509;47.992;7.848;2023-08-12T01:42:22;25.50;51.10
2439;DHT22;14509;47.992;7.848;2023-08-12T01:44:24;25.40;51.00
2439;DHT22;14509;47.992;7.848;2023-08-12T01:46:26;25.40;51.50
2439;DHT22;14509;47.992;7.848;2023-08-12T01:48:28;25.50;50.80
2439;DHT22;14509;47.992;7.848;2023-08-12T01:50:30;25.50;50.80
2439;DHT22;14509;47.992;7.848;2023-08-12T01:52:32;25.50;50.70
2439;DHT22;14509;47.992;7.848;2023-08-12T01:54:34;25.50;50.60
2439;DHT22;14509;47.992;7.848;2023-08-12T01:56:37;25.50;50.40
2439;DHT22;14509;47.992;7.848;2023-08-12T01:58:40;26.00;50.70
2439;DHT22;14509;47.992;7.848;2023-08-12T02:00:42;25.50;50.30
2439;DHT22;14509;47.992;7.848;2023-08-12T02:02:44;25.80;50.60
2439;DHT22;14509;47.992;7.848;2023-08-12T02:04:47;25.60;50.40
2439;DHT22;14509;47.992;7.848;2023-08-12T02:06:48;25.60;50.40
2439;DHT22;14509;47.992;7.848;2023-08-12T02:08:51;25.60;50.40
2439;DHT22;14509;47.992;7.848;2023-08-12T02:10:53;25.60;50.40
2439;DHT22;14509;47.992;7.848;2023-08-12T02:12:55;25.70;50.40
2439;DHT22;14509;47.992;7.848;2023-08-12T02:14:57;25.60;50.50
2439;DHT22;14509;47.992;7.848;2023-08-12T02:16:59;25.60;50.70
2439;DHT22;14509;47.992;7.848;2023-08-12T02:19:00;25.70;50.80
2439;DHT22;14509;47.992;7.848;2023-08-12T02:21:02;25.60;51.40
2439;DHT22;14509;47.992;7.848;2023-08-12T02:23:03;25.80;51.00
2439;DHT22;14509;47.992;7.848;2023-08-12T02:25:06;25.60;50.90
2439;DHT22;14509;47.992;7.848;2023-08-12T02:27:07;25.60;51.00
2439;DHT22;14509;47.992;7.848;2023-08-12T02:29:11;25.60;50.90
2439;DHT22;14509;47.992;7.848;2023-08-12T02:31:15;25.60;50.80
2439;DHT22;14509;47.992;7.848;2023-08-12T02:33:17;25.60;51.20
2439;DHT22;14509;47.992;7.848;2023-08-12T02:35:20;25.60;50.50
2439;DHT22;14509;47.992;7.848;2023-08-12T02:37:22;25.60;50.30
2439;DHT22;14509;47.992;7.848;2023-08-12T02:39:23;25.60;50.20
2439;DHT22;14509;47.992;7.848;2023-08-12T02:41:25;25.70;50.30
2439;DHT22;14509;47.992;7.848;2023-08-12T02:43:27;25.80;50.40
2439;DHT22;14509;47.992;7.848;2023-08-12T02:45:30;25.70;50.30
2439;DHT22;14509;47.992;7.848;2023-08-12T02:47:33;25.70;50.40
2439;DHT22;14509;47.992;7.848;2023-08-12T02:49:34;25.70;50.40
2439;DHT22;14509;47.992;7.848;2023-08-12T02:51:36;25.70;50.40
2439;DHT22;14509;47.992;7.848;2023-08-12T02:53:38;25.70;50.40
2439;DHT22;14509;47.992;7.848;2023-08-12T02:55:40;25.70;50.50
2439;DHT22;14509;47.992;7.848;2023-08-12T02:57:42;25.70;50.50
2439;DHT22;14509;47.992;7.848;2023-08-12T02:59:43;25.70;50.70
2439;DHT22;14509;47.992;7.848;2023-08-12T03:01:47;25.70;50.70
2439;DHT22;14509;47.992;7.848;2023-08-12T03:03:49;25.60;50.70
2439;DHT22;14509;47.992;7.848;2023-08-12T03:05:51;25.60;50.90
2439;DHT22;14509;47.992;7.848;2023-08-12T03:07:52;25.60;50.80
2439;DHT22;14509;47.992;7.848;2023-08-12T03:09:55;25.50;50.70
2439;DHT22;14509;47.992;7.848;2023-08-12T03:11:57;25.50;50.90
2439;DHT22;14509;47.992;7.848;2023-08-12T03:14:02;25.40;50.90
2439;DHT22;14509;47.992;7.848;2023-08-12T03:16:04;25.50;51.10
2439;DHT22;14509;47.992;7.848;2023-08-12T03:18:08;25.50;51.10
2439;DHT22;14509;47.992;7.848;2023-08-12T03:20:11;25.50;51.20
2439;DHT22;14509;47.992;7.848;2023-08-12T03:22:14;25.50;51.20
2439;DHT22;14509;47.992;7.848;2023-08-12T03:24:16;25.50;51.20
2439;DHT22;14509;47.992;7.848;2023-08-12T03:26:18;25.50;51.20
2439;DHT22;14509;47.992;7.848;2023-08-12T03:28:20;25.50;51.10
2439;DHT22;14509;47.992;7.848;2023-08-12T03:30:22;25.50;50.80
2439;DHT22;14509;47.992;7.848;2023-08-12T03:32:25;25.60;50.70
2439;DHT22;14509;47.992;7.848;2023-08-12T03:34:29;25.60;50.60
2439;DHT22;14509;47.992;7.848;2023-08-12T03:36:32;26.00;50.80
2439;DHT22;14509;47.992;7.848;2023-08-12T03:38:34;25.90;50.80
2439;DHT22;14509;47.992;7.848;2023-08-12T03:40:38;25.60;50.60
2439;DHT22;14509;47.992;7.848;2023-08-12T03:42:40;25.50;50.60
2439;DHT22;14509;47.992;7.848;2023-08-12T03:44:42;25.50;50.70
2439;DHT22;14509;47.992;7.848;2023-08-12T03:46:44;25.50;50.90
2439;DHT22;14509;47.992;7.848;2023-08-12T03:48:46;25.50;51.30
2439;DHT22;14509;47.992;7.848;2023-08-12T03:50:49;25.50;51.50
2439;DHT22;14509;47.992;7.848;2023-08-12T03:52:51;25.40;51.60
2439;DHT22;14509;47.992;7.848;2023-08-12T03:54:53;25.40;51.70
2439;DHT22;14509;47.992;7.848;2023-08-12T03:56:55;25.40;51.80
2439;DHT22;14509;47.992;7.848;2023-08-12T03:58:58;25.40;51.80
2439;DHT22;14509;47.992;7.848;2023-08-12T04:01:00;25.40;51.90
2439;DHT22;14509;47.992;7.848;2023-08-12T04:03:02;25.40;51.90
2439;DHT22;14509;47.992;7.848;2023-08-12T04:05:05;25.40;51.90
2439;DHT22;14509;47.992;7.848;2023-08-12T04:07:08;25.40;51.80
2439;DHT22;14509;47.992;7.848;2023-08-12T04:09:10;25.40;51.60
2439;DHT22;14509;47.992;7.848;2023-08-12T04:11:12;25.60;51.80
2439;DHT22;14509;47.992;7.848;2023-08-12T04:13:15;25.40;51.60
2439;DHT22;14509;47.992;7.848;2023-08-12T04:15:17;25.60;51.70
2439;DHT22;14509;47.992;7.848;2023-08-12T04:17:18;25.40;51.40
2439;DHT22;14509;47.992;7.848;2023-08-12T04:19:21;25.50;51.40
2439;DHT22;14509;47.992;7.848;2023-08-12T04:21:23;25.50;51.20
2439;DHT22;14509;47.992;7.848;2023-08-12T04:23:26;25.50;51.10
2439;DHT22;14509;47.992;7.848;2023-08-12T04:25:28;25.60;51.20
2439;DHT22;14509;47.992;7.848;2023-08-12T04:27:31;25.60;51.30
2439;DHT22;14509;47.992;7.848;2023-08-12T04:29:35;25.60;51.20
2439;DHT22;14509;47.992;7.848;2023-08-12T04:31:37;25.60;51.20
2439;DHT22;14509;47.992;7.848;2023-08-12T04:33:39;25.60;51.20
2439;DHT22;14509;47.992;7.848;2023-08-12T04:35:42;25.60;51.30
2439;DHT22;14509;47.992;7.848;2023-08-12T04:37:45;25.60;51.40
2439;DHT22;14509;47.992;7.848;2023-08-12T04:39:49;25.40;51.40
2439;DHT22;14509;47.992;7.848;2023-08-12T04:41:51;25.50;51.50
2439;DHT22;14509;47.992;7.848;2023-08-12T04:43:52;25.60;51.70
2439;DHT22;14509;47.992;7.848;2023-08-12T04:45:56;25.60;51.90
2439;DHT22;14509;47.992;7.848;2023-08-12T04:47:58;25.60;52.00
2439;DHT22;14509;47.992;7.848;2023-08-12T04:50:02;25.60;52.00
2439;DHT22;14509;47.992;7.848;2023-08-12T04:52:05;25.60;52.20
2439;DHT22;14509;47.992;7.848;2023-08-12T04:54:08;25.50;52.00
2439;DHT22;14509;47.992;7.848;2023-08-12T04:56:12;25.50;51.90
2439;DHT22;14509;47.992;7.848;2023-08-12T04:58:14;25.60;51.80
2439;DHT22;14509;47.992;7.848;2023-08-12T05:00:16;25.60;51.70
2439;DHT22;14509;47.992;7.848;2023-08-12T05:02:18;25.60;51.60
2439;DHT22;14509;47.992;7.848;2023-08-12T05:04:21;25.60;51.60
2439;DHT22;14509;47.992;7.848;2023-08-12T05:06:24;25.50;51.80
2439;DHT22;14509;47.992;7.848;2023-08-12T05:08:26;25.50;52.00
2439;DHT22;14509;47.992;7.848;2023-08-12T05:10:27;25.50;51.80
2439;DHT22;14509;47.992;7.848;2023-08-12T05:12:31;25.60;51.80
2439;DHT22;14509;47.992;7.848;2023-08-12T05:14:35;25.60;51.70
2439;DHT22;14509;47.992;7.848;2023-08-12T05:16:36;25.70;51.60
2439;DHT22;14509;47.992;7.848;2023-08-12T05:18:38;25.80;51.50
2439;DHT22;14509;47.992;7.848;2023-08-12T05:20:40;25.80;51.20
2439;DHT22;14509;47.992;7.848;2023-08-12T05:22:43;25.80;51.20
2439;DHT22;14509;47.992;7.848;2023-08-12T05:24:45;26.00;51.20
2439;DHT22;14509;47.992;7.848;2023-08-12T05:26:47;26.20;51.50
2439;DHT22;14509;47.992;7.848;2023-08-12T05:28:51;26.00;51.40
2439;DHT22;14509;47.992;7.848;2023-08-12T05:30:53;26.00;51.40
2439;DHT22;14509;47.992;7.848;2023-08-12T05:32:55;26.00;51.50
2439;DHT22;14509;47.992;7.848;2023-08-12T05:34:57;26.10;51.60
2439;DHT22;14509;47.992;7.848;2023-08-12T05:36:59;26.00;51.50
2439;DHT22;14509;47.992;7.848;2023-08-12T05:39:01;26.10;51.60
2439;DHT22;14509;47.992;7.848;2023-08-12T05:41:04;26.00;51.60
2439;DHT22;14509;47.992;7.848;2023-08-12T05:43:08;26.00;51.60
2439;DHT22;14509;47.992;7.848;2023-08-12T05:45:11;26.10;51.70
2439;DHT22;14509;47.992;7.848;2023-08-12T05:47:13;26.10;51.70
2439;DHT22;14509;47.992;7.848;2023-08-12T05:49:15;26.20;51.70
2439;DHT22;14509;47.992;7.848;2023-08-12T05:51:16;26.20;51.50
2439;DHT22;14509;47.992;7.848;2023-08-12T05:53:18;26.30;51.30
2439;DHT22;14509;47.992;7.848;2023-08-12T05:55:19;26.40;51.30
2439;DHT22;14509;47.992;7.848;2023-08-12T05:57:21;26.50;51.10
2439;DHT22;14509;47.992;7.848;2023-08-12T05:59:23;26.60;50.80
2439;DHT22;14509;47.992;7.848;2023-08-12T06:01:27;26.70;50.60
2439;DHT22;14509;47.992;7.848;2023-08-12T06:03:28;26.80;50.30
2439;DHT22;14509;47.992;7.848;2023-08-12T06:05:30;26.80;50.10
2439;DHT22;14509;47.992;7.848;2023-08-12T06:07:32;26.90;50.10
2439;DHT22;14509;47.992;7.848;2023-08-12T06:09:34;26.90;50.10
2439;DHT22;14509;47.992;7.848;2023-08-12T06:11:36;26.90;50.10
2439;DHT22;14509;47.992;7.848;2023-08-12T06:13:38;26.90;50.10
2439;DHT22;14509;47.992;7.848;2023-08-12T06:15:40;26.90;50.10
2439;DHT22;14509;47.992;7.848;2023-08-12T06:17:43;26.90;50.30
2439;DHT22;14509;47.992;7.848;2023-08-12T06:19:46;26.90;50.30
2439;DHT22;14509;47.992;7.848;2023-08-12T06:21:48;26.90;50.40
2439;DHT22;14509;47.992;7.848;2023-08-12T06:23:49;26.90;50.60
2439;DHT22;14509;47.992;7.848;2023-08-12T06:25:51;26.80;50.60
2439;DHT22;14509;47.992;7.848;2023-08-12T06:27:53;26.80;51.50
2439;DHT22;14509;47.992;7.848;2023-08-12T06:29:55;26.70;51.00
2439;DHT22;14509;47.992;7.848;2023-08-12T06:31:57;26.70;51.20
2439;DHT22;14509;47.992;7.848;2023-08-12T06:34:00;26.80;51.30
2439;DHT22;14509;47.992;7.848;2023-08-12T06:36:03;26.90;51.30
2439;DHT22;14509;47.992;7.848;2023-08-12T06:38:05;27.00;51.30
2439;DHT22;14509;47.992;7.848;2023-08-12T06:40:07;27.00;51.20
2439;DHT22;14509;47.992;7.848;2023-08-12T06:42:09;27.10;51.10
2439;DHT22;14509;47.992;7.848;2023-08-12T06:44:12;27.20;50.90
2439;DHT22;14509;47.992;7.848;2023-08-12T06:46:14;27.30;50.60
2439;DHT22;14509;47.992;7.848;2023-08-12T06:48:16;27.40;50.50
2439;DHT22;14509;47.992;7.848;2023-08-12T06:50:20;27.50;50.40
2439;DHT22;14509;47.992;7.848;2023-08-12T06:52:22;27.60;50.20
2439;DHT22;14509;47.992;7.848;2023-08-12T06:54:23;27.60;50.10
2439;DHT22;14509;47.992;7.848;2023-08-12T06:56:25;27.80;50.10
2439;DHT22;14509;47.992;7.848;2023-08-12T06:58:27;27.80;49.90
2439;DHT22;14509;47.992;7.848;2023-08-12T07:00:29;27.90;49.80
2439;DHT22;14509;47.992;7.848;2023-08-12T07:02:31;28.00;49.80
2439;DHT22;14509;47.992;7.848;2023-08-12T07:04:33;28.10;49.80
2439;DHT22;14509;47.992;7.848;2023-08-12T07:06:36;28.70;50.00
2439;DHT22;14509;47.992;7.848;2023-08-12T07:08:38;28.60;49.60
2439;DHT22;14509;47.992;7.848;2023-08-12T07:10:40;28.70;48.90
2439;DHT22;14509;47.992;7.848;2023-08-12T07:12:42;28.90;48.50
2439;DHT22;14509;47.992;7.848;2023-08-12T07:14:44;29.10;47.90
2439;DHT22;14509;47.992;7.848;2023-08-12T07:16:46;29.20;47.10
2439;DHT22;14509;47.992;7.848;2023-08-12T07:18:48;29.30;47.00
2439;DHT22;14509;47.992;7.848;2023-08-12T07:20:50;29.40;46.70
2439;DHT22;14509;47.992;7.848;2023-08-12T07:22:53;29.70;46.50
2439;DHT22;14509;47.992;7.848;2023-08-12T07:24:56;29.90;46.10
2439;DHT22;14509;47.992;7.848;2023-08-12T07:27:00;30.20;45.50
2439;DHT22;14509;47.992;7.848;2023-08-12T07:29:02;30.60;45.10
2439;DHT22;14509;47.992;7.848;2023-08-12T07:31:04;30.90;44.60
2439;DHT22;14509;47.992;7.848;2023-08-12T07:33:06;31.20;43.80
2439;DHT22;14509;47.992;7.848;2023-08-12T07:35:08;31.50;42.90
2439;DHT22;14509;47.992;7.848;2023-08-12T07:37:11;31.70;42.40
2439;DHT22;14509;47.992;7.848;2023-08-12T07:39:14;31.80;41.70
2439;DHT22;14509;47.992;7.848;2023-08-12T07:41:17;32.10;41.20
2439;DHT22;14509;47.992;7.848;2023-08-12T07:43:18;32.20;41.10
2439;DHT22;14509;47.992;7.848;2023-08-12T07:45:21;32.30;40.80
2439;DHT22;14509;47.992;7.848;2023-08-12T07:47:22;32.40;40.70
2439;DHT22;14509;47.992;7.848;2023-08-12T07:49:24;32.50;40.70
2439;DHT22;14509;47.992;7.848;2023-08-12T07:51:26;32.50;40.30
2439;DHT22;14509;47.992;7.848;2023-08-12T07:53:28;32.50;40.00
2439;DHT22;14509;47.992;7.848;2023-08-12T07:55:31;32.40;40.10
2439;DHT22;14509;47.992;7.848;2023-08-12T07:57:33;32.30;40.70
2439;DHT22;14509;47.992;7.848;2023-08-12T07:59:35;32.10;42.50
2439;DHT22;14509;47.992;7.848;2023-08-12T08:01:37;31.80;43.80
2439;DHT22;14509;47.992;7.848;2023-08-12T08:03:38;31.30;45.00
2439;DHT22;14509;47.992;7.848;2023-08-12T08:05:40;30.90;46.00
2439;DHT22;14509;47.992;7.848;2023-08-12T08:07:42;30.50;47.20
2439;DHT22;14509;47.992;7.848;2023-08-12T08:09:44;30.20;49.30
2439;DHT22;14509;47.992;7.848;2023-08-12T08:11:48;29.90;50.00
2439;DHT22;14509;47.992;7.848;2023-08-12T08:13:50;29.50;51.10
2439;DHT22;14509;47.992;7.848;2023-08-12T08:15:52;29.20;51.90
2439;DHT22;14509;47.992;7.848;2023-08-12T08:17:54;28.90;52.40
2439;DHT22;14509;47.992;7.848;2023-08-12T08:19:56;28.60;53.30
2439;DHT22;14509;47.992;7.848;2023-08-12T08:21:58;28.40;54.50
2439;DHT22;14509;47.992;7.848;2023-08-12T08:24:00;28.20;55.00
2439;DHT22;14509;47.992;7.848;2023-08-12T08:26:02;28.00;55.40
2439;DHT22;14509;47.992;7.848;2023-08-12T08:28:05;27.90;56.10
2439;DHT22;14509;47.992;7.848;2023-08-12T08:30:08;27.80;56.50
2439;DHT22;14509;47.992;7.848;2023-08-12T08:32:10;27.70;56.90
2439;DHT22;14509;47.992;7.848;2023-08-12T08:34:12;27.70;57.30
2439;DHT22;14509;47.992;7.848;2023-08-12T08:36:14;27.60;57.60
2439;DHT22;14509;47.992;7.848;2023-08-12T08:38:17;28.00;57.90
2439;DHT22;14509;47.992;7.848;2023-08-12T08:40:19;27.60;58.30
2439;DHT22;14509;47.992;7.848;2023-08-12T08:42:21;27.70;57.80
2439;DHT22;14509;47.992;7.848;2023-08-12T08:44:29;27.90;57.80
2439;DHT22;14509;47.992;7.848;2023-08-12T08:46:32;28.00;57.50
2439;DHT22;14509;47.992;7.848;2023-08-12T08:48:35;28.20;57.30
2439;DHT22;14509;47.992;7.848;2023-08-12T08:50:37;28.40;57.10
2439;DHT22;14509;47.992;7.848;2023-08-12T08:52:40;28.70;57.10
2439;DHT22;14509;47.992;7.848;2023-08-12T08:54:43;28.90;56.60
2439;DHT22;14509;47.992;7.848;2023-08-12T08:56:45;29.20;55.70
2439;DHT22;14509;47.992;7.848;2023-08-12T08:58:47;29.50;55.30
2439;DHT22;14509;47.992;7.848;2023-08-12T09:00:51;30.00;54.10
2439;DHT22;14509;47.992;7.848;2023-08-12T09:02:53;30.40;53.60
2439;DHT22;14509;47.992;7.848;2023-08-12T09:04:57;30.70;52.50
2439;DHT22;14509;47.992;7.848;2023-08-12T09:06:59;31.00;51.70
2439;DHT22;14509;47.992;7.848;2023-08-12T09:09:02;31.30;50.70
2439;DHT22;14509;47.992;7.848;2023-08-12T09:11:06;31.50;50.20
2439;DHT22;14509;47.992;7.848;2023-08-12T09:13:09;31.70;50.70
2439;DHT22;14509;47.992;7.848;2023-08-12T09:15:10;31.80;52.10
2439;DHT22;14509;47.992;7.848;2023-08-12T09:17:14;31.80;52.50
2439;DHT22;14509;47.992;7.848;2023-08-12T09:19:16;31.60;52.30
2439;DHT22;14509;47.992;7.848;2023-08-12T09:21:18;31.50;52.70
2439;DHT22;14509;47.992;7.848;2023-08-12T09:23:20;31.30;53.30
2439;DHT22;14509;47.992;7.848;2023-08-12T09:25:23;31.20;53.60
2439;DHT22;14509;47.992;7.848;2023-08-12T09:27:25;31.00;53.70
2439;DHT22;14509;47.992;7.848;2023-08-12T09:29:30;30.90;53.90
2439;DHT22;14509;47.992;7.848;2023-08-12T09:31:32;31.00;54.10
2439;DHT22;14509;47.992;7.848;2023-08-12T09:33:39;31.00;54.00
2439;DHT22;14509;47.992;7.848;2023-08-12T09:35:42;31.00;54.10
2439;DHT22;14509;47.992;7.848;2023-08-12T09:37:45;31.20;54.60
2439;DHT22;14509;47.992;7.848;2023-08-12T09:39:47;31.40;54.10
2439;DHT22;14509;47.992;7.848;2023-08-12T09:41:49;31.60;53.90
2439;DHT22;14509;47.992;7.848;2023-08-12T09:43:52;31.80;53.70
2439;DHT22;14509;47.992;7.848;2023-08-12T09:45:56;32.10;53.00
2439;DHT22;14509;47.992;7.848;2023-08-12T09:47:59;32.50;52.50
2439;DHT22;14509;47.992;7.848;2023-08-12T09:50:03;32.80;51.70
2439;DHT22;14509;47.992;7.848;2023-08-12T09:52:06;33.20;51.10
2439;DHT22;14509;47.992;7.848;2023-08-12T09:54:09;33.50;51.20
2439;DHT22;14509;47.992;7.848;2023-08-12T09:56:12;33.70;50.20
2439;DHT22;14509;47.992;7.848;2023-08-12T09:58:17;34.00;49.50
2439;DHT22;14509;47.992;7.848;2023-08-12T10:00:21;34.20;49.30
2439;DHT22;14509;47.992;7.848;2023-08-12T10:02:24;34.30;48.90
2439;DHT22;14509;47.992;7.848;2023-08-12T10:04:29;34.50;47.60
2439;DHT22;14509;47.992;7.848;2023-08-12T10:06:36;34.70;46.90
2439;DHT22;14509;47.992;7.848;2023-08-12T10:08:37;34.90;46.60
2439;DHT22;14509;47.992;7.848;2023-08-12T10:10:39;35.00;46.40
2439;DHT22;14509;47.992;7.848;2023-08-12T10:12:41;35.10;46.80
2439;DHT22;14509;47.992;7.848;2023-08-12T10:14:44;35.20;46.30
2439;DHT22;14509;47.992;7.848;2023-08-12T10:16:47;35.30;46.20
2439;DHT22;14509;47.992;7.848;2023-08-12T10:18:50;35.40;46.40
2439;DHT22;14509;47.992;7.848;2023-08-12T10:20:54;35.40;46.30
2439;DHT22;14509;47.992;7.848;2023-08-12T10:23:01;35.40;45.90
2439;DHT22;14509;47.992;7.848;2023-08-12T10:25:04;35.50;45.60
2439;DHT22;14509;47.992;7.848;2023-08-12T10:27:09;35.50;45.00
2439;DHT22;14509;47.992;7.848;2023-08-12T10:29:12;35.60;44.60
2439;DHT22;14509;47.992;7.848;2023-08-12T10:31:15;35.50;44.60
2439;DHT22;14509;47.992;7.848;2023-08-12T10:33:17;35.60;44.60
2439;DHT22;14509;47.992;7.848;2023-08-12T10:35:19;35.70;44.00
2439;DHT22;14509;47.992;7.848;2023-08-12T10:37:20;35.80;43.90
2439;DHT22;14509;47.992;7.848;2023-08-12T10:39:26;36.00;43.80
2439;DHT22;14509;47.992;7.848;2023-08-12T10:41:27;36.10;43.80
2439;DHT22;14509;47.992;7.848;2023-08-12T10:43:49;36.30;43.40
2439;DHT22;14509;47.992;7.848;2023-08-12T10:45:52;36.40;43.20
2439;DHT22;14509;47.992;7.848;2023-08-12T10:48:16;36.50;42.90
2439;DHT22;14509;47.992;7.848;2023-08-12T10:50:19;36.60;42.80
2439;DHT22;14509;47.992;7.848;2023-08-12T10:52:27;36.70;42.30
2439;DHT22;14509;47.992;7.848;2023-08-12T10:54:31;36.90;41.90
2439;DHT22;14509;47.992;7.848;2023-08-12T10:57:05;37.00;41.10
2439;DHT22;14509;47.992;7.848;2023-08-12T10:59:08;37.10;41.30
2439;DHT22;14509;47.992;7.848;2023-08-12T11:01:13;37.10;39.60
2439;DHT22;14509;47.992;7.848;2023-08-12T11:03:19;37.10;39.70
2439;DHT22;14509;47.992;7.848;2023-08-12T11:05:21;37.10;39.80
2439;DHT22;14509;47.992;7.848;2023-08-12T11:07:31;37.00;39.60
2439;DHT22;14509;47.992;7.848;2023-08-12T11:09:35;36.90;39.40
2439;DHT22;14509;47.992;7.848;2023-08-12T11:11:39;36.70;39.80
2439;DHT22;14509;47.992;7.848;2023-08-12T11:13:47;36.40;40.20
2439;DHT22;14509;47.992;7.848;2023-08-12T11:15:49;36.00;40.70
2439;DHT22;14509;47.992;7.848;2023-08-12T11:17:51;35.50;38.70
2439;DHT22;14509;47.992;7.848;2023-08-12T11:19:53;35.00;39.10
2439;DHT22;14509;47.992;7.848;2023-08-12T11:21:54;34.50;40.30
2439;DHT22;14509;47.992;7.848;2023-08-12T11:23:56;33.70;46.90
2439;DHT22;14509;47.992;7.848;2023-08-12T11:26:00;32.50;49.50
2439;DHT22;14509;47.992;7.848;2023-08-12T11:28:04;31.40;51.70
2439;DHT22;14509;47.992;7.848;2023-08-12T11:30:06;30.40;54.30
2439;DHT22;14509;47.992;7.848;2023-08-12T11:32:08;29.60;56.40
2439;DHT22;14509;47.992;7.848;2023-08-12T11:34:11;29.00;57.90
2439;DHT22;14509;47.992;7.848;2023-08-12T11:36:13;28.60;59.60
2439;DHT22;14509;47.992;7.848;2023-08-12T11:38:16;28.20;61.10
2439;DHT22;14509;47.992;7.848;2023-08-12T11:40:18;28.00;62.40
2439;DHT22;14509;47.992;7.848;2023-08-12T11:42:22;27.80;63.60
2439;DHT22;14509;47.992;7.848;2023-08-12T11:44:24;27.70;64.20
2439;DHT22;14509;47.992;7.848;2023-08-12T11:46:25;27.60;65.10
2439;DHT22;14509;47.992;7.848;2023-08-12T11:48:27;27.50;66.40
2439;DHT22;14509;47.992;7.848;2023-08-12T11:50:28;27.70;67.50
2439;DHT22;14509;47.992;7.848;2023-08-12T11:52:30;27.80;68.30
2439;DHT22;14509;47.992;7.848;2023-08-12T11:54:32;28.00;68.90
2439;DHT22;14509;47.992;7.848;2023-08-12T11:56:35;28.20;68.90
2439;DHT22;14509;47.992;7.848;2023-08-12T11:58:39;28.50;68.70
2439;DHT22;14509;47.992;7.848;2023-08-12T12:00:41;28.80;67.40
2439;DHT22;14509;47.992;7.848;2023-08-12T12:02:47;29.10;66.10
2439;DHT22;14509;47.992;7.848;2023-08-12T12:04:51;29.40;65.20
2439;DHT22;14509;47.992;7.848;2023-08-12T12:06:53;29.70;63.40
2439;DHT22;14509;47.992;7.848;2023-08-12T12:08:55;30.00;61.20
2439;DHT22;14509;47.992;7.848;2023-08-12T12:11:03;30.20;60.50
2439;DHT22;14509;47.992;7.848;2023-08-12T12:13:06;30.50;59.90
2439;DHT22;14509;47.992;7.848;2023-08-12T12:15:12;30.70;59.70
2439;DHT22;14509;47.992;7.848;2023-08-12T12:17:15;31.00;59.30
2439;DHT22;14509;47.992;7.848;2023-08-12T12:19:18;31.20;58.40
2439;DHT22;14509;47.992;7.848;2023-08-12T12:21:20;31.50;57.40
2439;DHT22;14509;47.992;7.848;2023-08-12T12:23:27;31.60;57.00
2439;DHT22;14509;47.992;7.848;2023-08-12T12:25:29;31.80;56.30
2439;DHT22;14509;47.992;7.848;2023-08-12T12:27:31;32.00;55.30
2439;DHT22;14509;47.992;7.848;2023-08-12T12:29:33;32.20;55.10
2439;DHT22;14509;47.992;7.848;2023-08-12T12:31:36;32.40;54.40
2439;DHT22;14509;47.992;7.848;2023-08-12T12:33:38;32.60;53.60
2439;DHT22;14509;47.992;7.848;2023-08-12T12:35:40;32.90;53.20
2439;DHT22;14509;47.992;7.848;2023-08-12T12:37:42;33.00;52.60
2439;DHT22;14509;47.992;7.848;2023-08-12T12:39:44;33.20;52.20
2439;DHT22;14509;47.992;7.848;2023-08-12T12:41:46;33.30;52.10
2439;DHT22;14509;47.992;7.848;2023-08-12T12:43:48;33.40;51.90
2439;DHT22;14509;47.992;7.848;2023-08-12T12:45:50;33.50;51.00
2439;DHT22;14509;47.992;7.848;2023-08-12T12:47:53;33.60;50.70
2439;DHT22;14509;47.992;7.848;2023-08-12T12:49:55;33.60;50.20
2439;DHT22;14509;47.992;7.848;2023-08-12T12:51:57;33.60;50.90
2439;DHT22;14509;47.992;7.848;2023-08-12T12:53:59;33.60;50.80
2439;DHT22;14509;47.992;7.848;2023-08-12T13:24:50;35.70;47.70
2439;DHT22;14509;47.992;7.848;2023-08-12T13:26:52;36.30;46.00
2439;DHT22;14509;47.992;7.848;2023-08-12T13:28:55;36.80;44.10
2439;DHT22;14509;47.992;7.848;2023-08-12T13:30:57;37.10;41.60
2439;DHT22;14509;47.992;7.848;2023-08-12T13:32:59;37.50;41.10
2439;DHT22;14509;47.992;7.848;2023-08-12T13:35:01;37.80;40.20
2439;DHT22;14509;47.992;7.848;2023-08-12T13:37:03;38.00;39.60